<?xml version="1.0" encoding="UTF-8" standalone="no" ?>
<gpx xmlns="http://www.topografix.com/GPX/1/1" xmlns:xsi="http://www.w3.org/2001/XMLSchema-instance" xsi:schemaLocation="http://www.topografix.com/GPX/1/1 http://www.topografix.com/GPX/1/1/gpx.xsd" version="1.1" creator="VisuGPX - https://www.visugpx.com">
  <metadata>
    <name>abbaretz_mine_7-9km</name>
    <desc><![CDATA[groupeM1 gnerando]]></desc>
  </metadata>
  <trk>
    <name><![CDATA[Abbaretz_Mine_7km-8309241]]></name>
    <extensions>
      <line xmlns="http://www.topografix.com/GPX/gpx_style/0/2">
        <color>0000FF</color>
        <width>4</width>
      </line>
    </extensions>
    <trkseg>
      <trkpt lat="47.55442" lon="-1.53327">
        <ele>65</ele>
        <time>2022-11-29T18:06:49Z</time>
      </trkpt>
      <trkpt lat="47.55495" lon="-1.53298">
        <ele>65</ele>
        <time>2022-11-29T18:08:04Z</time>
      </trkpt>
      <trkpt lat="47.55539" lon="-1.53279">
        <ele>64</ele>
        <time>2022-11-29T18:09:06Z</time>
      </trkpt>
      <trkpt lat="47.5556" lon="-1.53327">
        <ele>64</ele>
        <time>2022-11-29T18:09:57Z</time>
      </trkpt>
      <trkpt lat="47.55556" lon="-1.53393">
        <ele>64</ele>
        <time>2022-11-29T18:10:57Z</time>
      </trkpt>
      <trkpt lat="47.55561" lon="-1.53439">
        <ele>63</ele>
        <time>2022-11-29T18:11:39Z</time>
      </trkpt>
      <trkpt lat="47.55584" lon="-1.53487">
        <ele>62</ele>
        <time>2022-11-29T18:12:32Z</time>
      </trkpt>
      <trkpt lat="47.55587" lon="-1.53538">
        <ele>62</ele>
        <time>2022-11-29T18:13:18Z</time>
      </trkpt>
      <trkpt lat="47.55609" lon="-1.53592">
        <ele>61</ele>
        <time>2022-11-29T18:14:15Z</time>
      </trkpt>
      <trkpt lat="47.55613" lon="-1.53644">
        <ele>61</ele>
        <time>2022-11-29T18:15:02Z</time>
      </trkpt>
      <trkpt lat="47.55686" lon="-1.53664">
        <ele>62</ele>
        <time>2022-11-29T18:16:41Z</time>
      </trkpt>
      <trkpt lat="47.55689" lon="-1.53662">
        <ele>62</ele>
        <time>2022-11-29T18:16:45Z</time>
      </trkpt>
      <trkpt lat="47.55714" lon="-1.53697">
        <ele>63</ele>
        <time>2022-11-29T18:17:31Z</time>
      </trkpt>
      <trkpt lat="47.55723" lon="-1.53752">
        <ele>63</ele>
        <time>2022-11-29T18:18:22Z</time>
      </trkpt>
      <trkpt lat="47.55721" lon="-1.53811">
        <ele>61</ele>
        <time>2022-11-29T18:19:15Z</time>
      </trkpt>
      <trkpt lat="47.55728" lon="-1.53869">
        <ele>61</ele>
        <time>2022-11-29T18:20:08Z</time>
      </trkpt>
      <trkpt lat="47.55745" lon="-1.5393">
        <ele>62</ele>
        <time>2022-11-29T18:21:08Z</time>
      </trkpt>
      <trkpt lat="47.55754" lon="-1.53977">
        <ele>63</ele>
        <time>2022-11-29T18:21:52Z</time>
      </trkpt>
      <trkpt lat="47.55772" lon="-1.54079">
        <ele>61</ele>
        <time>2022-11-29T18:23:27Z</time>
      </trkpt>
      <trkpt lat="47.5578" lon="-1.54124">
        <ele>60</ele>
        <time>2022-11-29T18:24:09Z</time>
      </trkpt>
      <trkpt lat="47.55791" lon="-1.54169">
        <ele>59</ele>
        <time>2022-11-29T18:24:52Z</time>
      </trkpt>
      <trkpt lat="47.55877" lon="-1.54173">
        <ele>57</ele>
        <time>2022-11-29T18:26:47Z</time>
      </trkpt>
      <trkpt lat="47.55944" lon="-1.54171">
        <ele>58</ele>
        <time>2022-11-29T18:28:16Z</time>
      </trkpt>
      <trkpt lat="47.55942" lon="-1.54023">
        <ele>58</ele>
        <time>2022-11-29T18:30:29Z</time>
      </trkpt>
      <trkpt lat="47.55955" lon="-1.53862">
        <ele>56</ele>
        <time>2022-11-29T18:32:55Z</time>
      </trkpt>
      <trkpt lat="47.5596" lon="-1.53745">
        <ele>55</ele>
        <time>2022-11-29T18:34:41Z</time>
      </trkpt>
      <trkpt lat="47.56004" lon="-1.53678">
        <ele>52</ele>
        <time>2022-11-29T18:36:05Z</time>
      </trkpt>
      <trkpt lat="47.56066" lon="-1.53652">
        <ele>51</ele>
        <time>2022-11-29T18:37:31Z</time>
      </trkpt>
      <trkpt lat="47.56134" lon="-1.53608">
        <ele>50</ele>
        <time>2022-11-29T18:39:10Z</time>
      </trkpt>
      <trkpt lat="47.56195" lon="-1.53586">
        <ele>48</ele>
        <time>2022-11-29T18:40:34Z</time>
      </trkpt>
      <trkpt lat="47.56246" lon="-1.53595">
        <ele>49</ele>
        <time>2022-11-29T18:41:42Z</time>
      </trkpt>
      <trkpt lat="47.56285" lon="-1.53611">
        <ele>49</ele>
        <time>2022-11-29T18:42:36Z</time>
      </trkpt>
      <trkpt lat="47.56334" lon="-1.53649">
        <ele>48</ele>
        <time>2022-11-29T18:43:50Z</time>
      </trkpt>
      <trkpt lat="47.56365" lon="-1.53689">
        <ele>49</ele>
        <time>2022-11-29T18:44:45Z</time>
      </trkpt>
      <trkpt lat="47.56489" lon="-1.53733">
        <ele>48</ele>
        <time>2022-11-29T18:47:35Z</time>
      </trkpt>
      <trkpt lat="47.56532" lon="-1.53767">
        <ele>46</ele>
        <time>2022-11-29T18:48:40Z</time>
      </trkpt>
      <trkpt lat="47.56537" lon="-1.53825">
        <ele>46</ele>
        <time>2022-11-29T18:49:33Z</time>
      </trkpt>
      <trkpt lat="47.5653" lon="-1.53921">
        <ele>46</ele>
        <time>2022-11-29T18:51:00Z</time>
      </trkpt>
      <trkpt lat="47.56534" lon="-1.53998">
        <ele>43</ele>
        <time>2022-11-29T18:52:09Z</time>
      </trkpt>
      <trkpt lat="47.5656" lon="-1.54073">
        <ele>41</ele>
        <time>2022-11-29T18:53:25Z</time>
      </trkpt>
      <trkpt lat="47.56569" lon="-1.54091">
        <ele>40</ele>
        <time>2022-11-29T18:53:45Z</time>
      </trkpt>
      <trkpt lat="47.56582" lon="-1.54137">
        <ele>40</ele>
        <time>2022-11-29T18:54:30Z</time>
      </trkpt>
      <trkpt lat="47.56568" lon="-1.54175">
        <ele>40</ele>
        <time>2022-11-29T18:55:09Z</time>
      </trkpt>
      <trkpt lat="47.56547" lon="-1.54191">
        <ele>40</ele>
        <time>2022-11-29T18:55:41Z</time>
      </trkpt>
      <trkpt lat="47.56534" lon="-1.54212">
        <ele>40</ele>
        <time>2022-11-29T18:56:07Z</time>
      </trkpt>
      <trkpt lat="47.56521" lon="-1.54248">
        <ele>41</ele>
        <time>2022-11-29T18:56:43Z</time>
      </trkpt>
      <trkpt lat="47.565" lon="-1.54324">
        <ele>44</ele>
        <time>2022-11-29T18:57:57Z</time>
      </trkpt>
      <trkpt lat="47.56465" lon="-1.54414">
        <ele>44</ele>
        <time>2022-11-29T18:59:31Z</time>
      </trkpt>
      <trkpt lat="47.5644" lon="-1.54454">
        <ele>43</ele>
        <time>2022-11-29T19:00:20Z</time>
      </trkpt>
      <trkpt lat="47.56423" lon="-1.54503">
        <ele>42</ele>
        <time>2022-11-29T19:01:09Z</time>
      </trkpt>
      <trkpt lat="47.56363" lon="-1.54617">
        <ele>42</ele>
        <time>2022-11-29T19:03:20Z</time>
      </trkpt>
      <trkpt lat="47.56337" lon="-1.54673">
        <ele>42</ele>
        <time>2022-11-29T19:04:21Z</time>
      </trkpt>
      <trkpt lat="47.56311" lon="-1.54695">
        <ele>42</ele>
        <time>2022-11-29T19:05:01Z</time>
      </trkpt>
      <trkpt lat="47.56264" lon="-1.54714">
        <ele>41</ele>
        <time>2022-11-29T19:06:06Z</time>
      </trkpt>
      <trkpt lat="47.56243" lon="-1.5476">
        <ele>40</ele>
        <time>2022-11-29T19:06:56Z</time>
      </trkpt>
      <trkpt lat="47.5621" lon="-1.54815">
        <ele>42</ele>
        <time>2022-11-29T19:08:02Z</time>
      </trkpt>
      <trkpt lat="47.56146" lon="-1.5487">
        <ele>45</ele>
        <time>2022-11-29T19:09:41Z</time>
      </trkpt>
      <trkpt lat="47.56113" lon="-1.54914">
        <ele>46</ele>
        <time>2022-11-29T19:10:40Z</time>
      </trkpt>
      <trkpt lat="47.56069" lon="-1.54928">
        <ele>49</ele>
        <time>2022-11-29T19:11:40Z</time>
      </trkpt>
      <trkpt lat="47.5601" lon="-1.5495">
        <ele>52</ele>
        <time>2022-11-29T19:13:01Z</time>
      </trkpt>
      <trkpt lat="47.5599" lon="-1.54969">
        <ele>52</ele>
        <time>2022-11-29T19:13:33Z</time>
      </trkpt>
      <trkpt lat="47.55968" lon="-1.54974">
        <ele>53</ele>
        <time>2022-11-29T19:14:03Z</time>
      </trkpt>
      <trkpt lat="47.55947" lon="-1.54978">
        <ele>53</ele>
        <time>2022-11-29T19:14:31Z</time>
      </trkpt>
      <trkpt lat="47.55931" lon="-1.54978">
        <ele>54</ele>
        <time>2022-11-29T19:14:52Z</time>
      </trkpt>
      <trkpt lat="47.55921" lon="-1.54942">
        <ele>54</ele>
        <time>2022-11-29T19:15:27Z</time>
      </trkpt>
      <trkpt lat="47.55916" lon="-1.54844">
        <ele>53</ele>
        <time>2022-11-29T19:16:56Z</time>
      </trkpt>
      <trkpt lat="47.55909" lon="-1.54762">
        <ele>55</ele>
        <time>2022-11-29T19:18:10Z</time>
      </trkpt>
      <trkpt lat="47.55912" lon="-1.54649">
        <ele>56</ele>
        <time>2022-11-29T19:19:52Z</time>
      </trkpt>
      <trkpt lat="47.55924" lon="-1.54642">
        <ele>55</ele>
        <time>2022-11-29T19:20:09Z</time>
      </trkpt>
      <trkpt lat="47.55925" lon="-1.5449">
        <ele>57</ele>
        <time>2022-11-29T19:22:26Z</time>
      </trkpt>
      <trkpt lat="47.55933" lon="-1.54283">
        <ele>61</ele>
        <time>2022-11-29T19:25:33Z</time>
      </trkpt>
      <trkpt lat="47.55924" lon="-1.54226">
        <ele>59</ele>
        <time>2022-11-29T19:26:26Z</time>
      </trkpt>
      <trkpt lat="47.55945" lon="-1.54215">
        <ele>61</ele>
        <time>2022-11-29T19:26:55Z</time>
      </trkpt>
      <trkpt lat="47.55998" lon="-1.54199">
        <ele>64</ele>
        <time>2022-11-29T19:28:08Z</time>
      </trkpt>
      <trkpt lat="47.56034" lon="-1.54196">
        <ele>65</ele>
        <time>2022-11-29T19:28:56Z</time>
      </trkpt>
      <trkpt lat="47.56052" lon="-1.54234">
        <ele>73</ele>
        <time>2022-11-29T19:29:38Z</time>
      </trkpt>
      <trkpt lat="47.56075" lon="-1.54344">
        <ele>84</ele>
        <time>2022-11-29T19:31:21Z</time>
      </trkpt>
      <trkpt lat="47.56134" lon="-1.54372">
        <ele>84</ele>
        <time>2022-11-29T19:32:44Z</time>
      </trkpt>
      <trkpt lat="47.56075" lon="-1.54346">
        <ele>84</ele>
        <time>2022-11-29T19:34:06Z</time>
      </trkpt>
      <trkpt lat="47.56052" lon="-1.54234">
        <ele>73</ele>
        <time>2022-11-29T19:35:51Z</time>
      </trkpt>
      <trkpt lat="47.56034" lon="-1.54195">
        <ele>65</ele>
        <time>2022-11-29T19:36:34Z</time>
      </trkpt>
      <trkpt lat="47.55972" lon="-1.54202">
        <ele>62</ele>
        <time>2022-11-29T19:37:57Z</time>
      </trkpt>
      <trkpt lat="47.55923" lon="-1.54228">
        <ele>59</ele>
        <time>2022-11-29T19:39:06Z</time>
      </trkpt>
      <trkpt lat="47.55924" lon="-1.54181">
        <ele>57</ele>
        <time>2022-11-29T19:39:49Z</time>
      </trkpt>
      <trkpt lat="47.55823" lon="-1.54188">
        <ele>58</ele>
        <time>2022-11-29T19:42:04Z</time>
      </trkpt>
      <trkpt lat="47.55809" lon="-1.54267">
        <ele>60</ele>
        <time>2022-11-29T19:43:17Z</time>
      </trkpt>
      <trkpt lat="47.5581" lon="-1.54344">
        <ele>63</ele>
        <time>2022-11-29T19:44:27Z</time>
      </trkpt>
      <trkpt lat="47.55808" lon="-1.54403">
        <ele>63</ele>
        <time>2022-11-29T19:45:20Z</time>
      </trkpt>
      <trkpt lat="47.55811" lon="-1.54454">
        <ele>62</ele>
        <time>2022-11-29T19:46:06Z</time>
      </trkpt>
      <trkpt lat="47.55809" lon="-1.54515">
        <ele>62</ele>
        <time>2022-11-29T19:47:01Z</time>
      </trkpt>
      <trkpt lat="47.55808" lon="-1.54581">
        <ele>62</ele>
        <time>2022-11-29T19:48:00Z</time>
      </trkpt>
      <trkpt lat="47.55826" lon="-1.54642">
        <ele>62</ele>
        <time>2022-11-29T19:49:00Z</time>
      </trkpt>
      <trkpt lat="47.5585" lon="-1.54679">
        <ele>61</ele>
        <time>2022-11-29T19:49:47Z</time>
      </trkpt>
      <trkpt lat="47.55842" lon="-1.54727">
        <ele>61</ele>
        <time>2022-11-29T19:50:31Z</time>
      </trkpt>
      <trkpt lat="47.55832" lon="-1.54763">
        <ele>62</ele>
        <time>2022-11-29T19:51:06Z</time>
      </trkpt>
      <trkpt lat="47.55806" lon="-1.5479">
        <ele>62</ele>
        <time>2022-11-29T19:51:49Z</time>
      </trkpt>
      <trkpt lat="47.55806" lon="-1.54858">
        <ele>61</ele>
        <time>2022-11-29T19:52:50Z</time>
      </trkpt>
      <trkpt lat="47.55805" lon="-1.54907">
        <ele>60</ele>
        <time>2022-11-29T19:53:34Z</time>
      </trkpt>
      <trkpt lat="47.55793" lon="-1.54952">
        <ele>58</ele>
        <time>2022-11-29T19:54:17Z</time>
      </trkpt>
      <trkpt lat="47.55798" lon="-1.54992">
        <ele>56</ele>
        <time>2022-11-29T19:54:54Z</time>
      </trkpt>
      <trkpt lat="47.5577" lon="-1.55003">
        <ele>56</ele>
        <time>2022-11-29T19:55:33Z</time>
      </trkpt>
      <trkpt lat="47.55694" lon="-1.54931">
        <ele>61</ele>
        <time>2022-11-29T19:57:33Z</time>
      </trkpt>
      <trkpt lat="47.55666" lon="-1.54888">
        <ele>62</ele>
        <time>2022-11-29T19:58:27Z</time>
      </trkpt>
      <trkpt lat="47.55589" lon="-1.54783">
        <ele>64</ele>
        <time>2022-11-29T20:00:47Z</time>
      </trkpt>
      <trkpt lat="47.55562" lon="-1.54689">
        <ele>65</ele>
        <time>2022-11-29T20:02:19Z</time>
      </trkpt>
      <trkpt lat="47.55541" lon="-1.54526">
        <ele>66</ele>
        <time>2022-11-29T20:04:48Z</time>
      </trkpt>
      <trkpt lat="47.55561" lon="-1.54405">
        <ele>64</ele>
        <time>2022-11-29T20:06:40Z</time>
      </trkpt>
      <trkpt lat="47.5558" lon="-1.54314">
        <ele>65</ele>
        <time>2022-11-29T20:08:06Z</time>
      </trkpt>
      <trkpt lat="47.55612" lon="-1.54259">
        <ele>66</ele>
        <time>2022-11-29T20:09:11Z</time>
      </trkpt>
      <trkpt lat="47.55617" lon="-1.54123">
        <ele>66</ele>
        <time>2022-11-29T20:11:14Z</time>
      </trkpt>
      <trkpt lat="47.55637" lon="-1.5397">
        <ele>64</ele>
        <time>2022-11-29T20:13:34Z</time>
      </trkpt>
      <trkpt lat="47.55646" lon="-1.53837">
        <ele>62</ele>
        <time>2022-11-29T20:15:35Z</time>
      </trkpt>
      <trkpt lat="47.55667" lon="-1.53731">
        <ele>62</ele>
        <time>2022-11-29T20:17:14Z</time>
      </trkpt>
      <trkpt lat="47.55684" lon="-1.53677">
        <ele>62</ele>
        <time>2022-11-29T20:18:08Z</time>
      </trkpt>
      <trkpt lat="47.55612" lon="-1.53639">
        <ele>61</ele>
        <time>2022-11-29T20:19:50Z</time>
      </trkpt>
      <trkpt lat="47.55601" lon="-1.53569">
        <ele>61</ele>
        <time>2022-11-29T20:20:55Z</time>
      </trkpt>
      <trkpt lat="47.55564" lon="-1.53438">
        <ele>63</ele>
        <time>2022-11-29T20:23:03Z</time>
      </trkpt>
      <trkpt lat="47.55557" lon="-1.53321">
        <ele>64</ele>
        <time>2022-11-29T20:24:48Z</time>
      </trkpt>
      <trkpt lat="47.55536" lon="-1.53278">
        <ele>64</ele>
        <time>2022-11-29T20:25:36Z</time>
      </trkpt>
      <trkpt lat="47.55445" lon="-1.53329">
        <ele>65</ele>
        <time>2022-11-29T20:27:46Z</time>
      </trkpt>
    </trkseg>
  </trk>
  <trk>
    <name><![CDATA[Abbaretz_MineEtEtang_9km-6470921]]></name>
    <extensions>
      <line xmlns="http://www.topografix.com/GPX/gpx_style/0/2">
        <color>008000</color>
        <width>4</width>
      </line>
    </extensions>
    <trkseg>
      <trkpt lat="47.55389" lon="-1.53263">
        <ele>68</ele>
        <time>2023-10-29T17:00:49Z</time>
      </trkpt>
      <trkpt lat="47.55365" lon="-1.53226">
        <ele>70</ele>
        <time>2023-10-29T17:01:35Z</time>
      </trkpt>
      <trkpt lat="47.55382" lon="-1.53237">
        <ele>69</ele>
        <time>2023-10-29T17:02:00Z</time>
      </trkpt>
      <trkpt lat="47.55397" lon="-1.53253">
        <ele>68</ele>
        <time>2023-10-29T17:02:25Z</time>
      </trkpt>
      <trkpt lat="47.55413" lon="-1.53267">
        <ele>67</ele>
        <time>2023-10-29T17:02:49Z</time>
      </trkpt>
      <trkpt lat="47.55426" lon="-1.53286">
        <ele>66</ele>
        <time>2023-10-29T17:03:14Z</time>
      </trkpt>
      <trkpt lat="47.5544" lon="-1.53303">
        <ele>66</ele>
        <time>2023-10-29T17:03:38Z</time>
      </trkpt>
      <trkpt lat="47.5545" lon="-1.53326">
        <ele>65</ele>
        <time>2023-10-29T17:04:03Z</time>
      </trkpt>
      <trkpt lat="47.55468" lon="-1.53328">
        <ele>65</ele>
        <time>2023-10-29T17:04:27Z</time>
      </trkpt>
      <trkpt lat="47.55486" lon="-1.53337">
        <ele>64</ele>
        <time>2023-10-29T17:04:52Z</time>
      </trkpt>
      <trkpt lat="47.555" lon="-1.53356">
        <ele>64</ele>
        <time>2023-10-29T17:05:17Z</time>
      </trkpt>
      <trkpt lat="47.55502" lon="-1.53383">
        <ele>64</ele>
        <time>2023-10-29T17:05:42Z</time>
      </trkpt>
      <trkpt lat="47.55512" lon="-1.53408">
        <ele>64</ele>
        <time>2023-10-29T17:06:08Z</time>
      </trkpt>
      <trkpt lat="47.55524" lon="-1.53429">
        <ele>64</ele>
        <time>2023-10-29T17:06:33Z</time>
      </trkpt>
      <trkpt lat="47.55533" lon="-1.53452">
        <ele>63</ele>
        <time>2023-10-29T17:06:57Z</time>
      </trkpt>
      <trkpt lat="47.55546" lon="-1.53473">
        <ele>63</ele>
        <time>2023-10-29T17:07:22Z</time>
      </trkpt>
      <trkpt lat="47.55555" lon="-1.53495">
        <ele>63</ele>
        <time>2023-10-29T17:07:46Z</time>
      </trkpt>
      <trkpt lat="47.55568" lon="-1.53546">
        <ele>62</ele>
        <time>2023-10-29T17:08:35Z</time>
      </trkpt>
      <trkpt lat="47.55571" lon="-1.53573">
        <ele>61</ele>
        <time>2023-10-29T17:08:59Z</time>
      </trkpt>
      <trkpt lat="47.55583" lon="-1.53593">
        <ele>61</ele>
        <time>2023-10-29T17:09:23Z</time>
      </trkpt>
      <trkpt lat="47.55597" lon="-1.53611">
        <ele>61</ele>
        <time>2023-10-29T17:09:48Z</time>
      </trkpt>
      <trkpt lat="47.55626" lon="-1.53645">
        <ele>61</ele>
        <time>2023-10-29T17:10:37Z</time>
      </trkpt>
      <trkpt lat="47.55659" lon="-1.53674">
        <ele>62</ele>
        <time>2023-10-29T17:11:29Z</time>
      </trkpt>
      <trkpt lat="47.55677" lon="-1.53682">
        <ele>62</ele>
        <time>2023-10-29T17:11:54Z</time>
      </trkpt>
      <trkpt lat="47.55692" lon="-1.53697">
        <ele>62</ele>
        <time>2023-10-29T17:12:18Z</time>
      </trkpt>
      <trkpt lat="47.557" lon="-1.53721">
        <ele>62</ele>
        <time>2023-10-29T17:12:42Z</time>
      </trkpt>
      <trkpt lat="47.55719" lon="-1.53724">
        <ele>63</ele>
        <time>2023-10-29T17:13:08Z</time>
      </trkpt>
      <trkpt lat="47.55737" lon="-1.5373">
        <ele>63</ele>
        <time>2023-10-29T17:13:32Z</time>
      </trkpt>
      <trkpt lat="47.55755" lon="-1.53732">
        <ele>63</ele>
        <time>2023-10-29T17:13:56Z</time>
      </trkpt>
      <trkpt lat="47.55761" lon="-1.5376">
        <ele>62</ele>
        <time>2023-10-29T17:14:23Z</time>
      </trkpt>
      <trkpt lat="47.55764" lon="-1.53786">
        <ele>61</ele>
        <time>2023-10-29T17:14:46Z</time>
      </trkpt>
      <trkpt lat="47.5577" lon="-1.53813">
        <ele>60</ele>
        <time>2023-10-29T17:15:12Z</time>
      </trkpt>
      <trkpt lat="47.55763" lon="-1.53839">
        <ele>60</ele>
        <time>2023-10-29T17:15:37Z</time>
      </trkpt>
      <trkpt lat="47.55757" lon="-1.53865">
        <ele>61</ele>
        <time>2023-10-29T17:16:02Z</time>
      </trkpt>
      <trkpt lat="47.55747" lon="-1.53888">
        <ele>61</ele>
        <time>2023-10-29T17:16:27Z</time>
      </trkpt>
      <trkpt lat="47.55739" lon="-1.53913">
        <ele>62</ele>
        <time>2023-10-29T17:16:52Z</time>
      </trkpt>
      <trkpt lat="47.5574" lon="-1.53941">
        <ele>62</ele>
        <time>2023-10-29T17:17:17Z</time>
      </trkpt>
      <trkpt lat="47.55747" lon="-1.53966">
        <ele>63</ele>
        <time>2023-10-29T17:17:41Z</time>
      </trkpt>
      <trkpt lat="47.55762" lon="-1.53981">
        <ele>63</ele>
        <time>2023-10-29T17:18:05Z</time>
      </trkpt>
      <trkpt lat="47.55766" lon="-1.54008">
        <ele>63</ele>
        <time>2023-10-29T17:18:30Z</time>
      </trkpt>
      <trkpt lat="47.55769" lon="-1.54035">
        <ele>62</ele>
        <time>2023-10-29T17:18:55Z</time>
      </trkpt>
      <trkpt lat="47.55776" lon="-1.54059">
        <ele>62</ele>
        <time>2023-10-29T17:19:18Z</time>
      </trkpt>
      <trkpt lat="47.5578" lon="-1.54085">
        <ele>61</ele>
        <time>2023-10-29T17:19:42Z</time>
      </trkpt>
      <trkpt lat="47.55789" lon="-1.5411">
        <ele>60</ele>
        <time>2023-10-29T17:20:08Z</time>
      </trkpt>
      <trkpt lat="47.55807" lon="-1.5412">
        <ele>60</ele>
        <time>2023-10-29T17:20:34Z</time>
      </trkpt>
      <trkpt lat="47.55824" lon="-1.54133">
        <ele>59</ele>
        <time>2023-10-29T17:20:59Z</time>
      </trkpt>
      <trkpt lat="47.55827" lon="-1.5416">
        <ele>58</ele>
        <time>2023-10-29T17:21:24Z</time>
      </trkpt>
      <trkpt lat="47.55844" lon="-1.54169">
        <ele>57</ele>
        <time>2023-10-29T17:21:48Z</time>
      </trkpt>
      <trkpt lat="47.55862" lon="-1.54175">
        <ele>57</ele>
        <time>2023-10-29T17:22:12Z</time>
      </trkpt>
      <trkpt lat="47.55881" lon="-1.54179">
        <ele>57</ele>
        <time>2023-10-29T17:22:38Z</time>
      </trkpt>
      <trkpt lat="47.55899" lon="-1.54182">
        <ele>57</ele>
        <time>2023-10-29T17:23:02Z</time>
      </trkpt>
      <trkpt lat="47.55911" lon="-1.54204">
        <ele>57</ele>
        <time>2023-10-29T17:23:28Z</time>
      </trkpt>
      <trkpt lat="47.55921" lon="-1.54227">
        <ele>59</ele>
        <time>2023-10-29T17:23:52Z</time>
      </trkpt>
      <trkpt lat="47.55923" lon="-1.54253">
        <ele>60</ele>
        <time>2023-10-29T17:24:16Z</time>
      </trkpt>
      <trkpt lat="47.55935" lon="-1.54275">
        <ele>62</ele>
        <time>2023-10-29T17:24:41Z</time>
      </trkpt>
      <trkpt lat="47.55935" lon="-1.54302">
        <ele>61</ele>
        <time>2023-10-29T17:25:06Z</time>
      </trkpt>
      <trkpt lat="47.55934" lon="-1.54329">
        <ele>61</ele>
        <time>2023-10-29T17:25:30Z</time>
      </trkpt>
      <trkpt lat="47.55935" lon="-1.54357">
        <ele>60</ele>
        <time>2023-10-29T17:25:55Z</time>
      </trkpt>
      <trkpt lat="47.55917" lon="-1.54366">
        <ele>59</ele>
        <time>2023-10-29T17:26:21Z</time>
      </trkpt>
      <trkpt lat="47.5591" lon="-1.54392">
        <ele>59</ele>
        <time>2023-10-29T17:26:46Z</time>
      </trkpt>
      <trkpt lat="47.55913" lon="-1.54419">
        <ele>58</ele>
        <time>2023-10-29T17:27:11Z</time>
      </trkpt>
      <trkpt lat="47.55913" lon="-1.54446">
        <ele>58</ele>
        <time>2023-10-29T17:27:35Z</time>
      </trkpt>
      <trkpt lat="47.55914" lon="-1.54474">
        <ele>57</ele>
        <time>2023-10-29T17:28:00Z</time>
      </trkpt>
      <trkpt lat="47.55912" lon="-1.545">
        <ele>57</ele>
        <time>2023-10-29T17:28:24Z</time>
      </trkpt>
      <trkpt lat="47.55905" lon="-1.54525">
        <ele>58</ele>
        <time>2023-10-29T17:28:48Z</time>
      </trkpt>
      <trkpt lat="47.55905" lon="-1.54552">
        <ele>58</ele>
        <time>2023-10-29T17:29:12Z</time>
      </trkpt>
      <trkpt lat="47.55906" lon="-1.54581">
        <ele>59</ele>
        <time>2023-10-29T17:29:38Z</time>
      </trkpt>
      <trkpt lat="47.55906" lon="-1.54608">
        <ele>58</ele>
        <time>2023-10-29T17:30:03Z</time>
      </trkpt>
      <trkpt lat="47.55921" lon="-1.54624">
        <ele>56</ele>
        <time>2023-10-29T17:30:27Z</time>
      </trkpt>
      <trkpt lat="47.5594" lon="-1.54627">
        <ele>55</ele>
        <time>2023-10-29T17:30:53Z</time>
      </trkpt>
      <trkpt lat="47.55957" lon="-1.54639">
        <ele>53</ele>
        <time>2023-10-29T17:31:18Z</time>
      </trkpt>
      <trkpt lat="47.55974" lon="-1.54646">
        <ele>52</ele>
        <time>2023-10-29T17:31:42Z</time>
      </trkpt>
      <trkpt lat="47.55993" lon="-1.54648">
        <ele>50</ele>
        <time>2023-10-29T17:32:07Z</time>
      </trkpt>
      <trkpt lat="47.56011" lon="-1.54651">
        <ele>50</ele>
        <time>2023-10-29T17:32:31Z</time>
      </trkpt>
      <trkpt lat="47.56029" lon="-1.54654">
        <ele>49</ele>
        <time>2023-10-29T17:32:55Z</time>
      </trkpt>
      <trkpt lat="47.56047" lon="-1.54651">
        <ele>49</ele>
        <time>2023-10-29T17:33:20Z</time>
      </trkpt>
      <trkpt lat="47.56065" lon="-1.54656">
        <ele>48</ele>
        <time>2023-10-29T17:33:44Z</time>
      </trkpt>
      <trkpt lat="47.56083" lon="-1.54659">
        <ele>47</ele>
        <time>2023-10-29T17:34:08Z</time>
      </trkpt>
      <trkpt lat="47.56101" lon="-1.54659">
        <ele>47</ele>
        <time>2023-10-29T17:34:32Z</time>
      </trkpt>
      <trkpt lat="47.5612" lon="-1.54661">
        <ele>46</ele>
        <time>2023-10-29T17:34:58Z</time>
      </trkpt>
      <trkpt lat="47.56136" lon="-1.54649">
        <ele>46</ele>
        <time>2023-10-29T17:35:22Z</time>
      </trkpt>
      <trkpt lat="47.56149" lon="-1.54628">
        <ele>47</ele>
        <time>2023-10-29T17:35:47Z</time>
      </trkpt>
      <trkpt lat="47.56149" lon="-1.54601">
        <ele>49</ele>
        <time>2023-10-29T17:36:12Z</time>
      </trkpt>
      <trkpt lat="47.56167" lon="-1.54595">
        <ele>49</ele>
        <time>2023-10-29T17:36:36Z</time>
      </trkpt>
      <trkpt lat="47.56186" lon="-1.54593">
        <ele>49</ele>
        <time>2023-10-29T17:37:02Z</time>
      </trkpt>
      <trkpt lat="47.56205" lon="-1.54594">
        <ele>48</ele>
        <time>2023-10-29T17:37:27Z</time>
      </trkpt>
      <trkpt lat="47.56222" lon="-1.54599">
        <ele>47</ele>
        <time>2023-10-29T17:37:50Z</time>
      </trkpt>
      <trkpt lat="47.5624" lon="-1.54606">
        <ele>46</ele>
        <time>2023-10-29T17:38:15Z</time>
      </trkpt>
      <trkpt lat="47.56258" lon="-1.54598">
        <ele>46</ele>
        <time>2023-10-29T17:38:40Z</time>
      </trkpt>
      <trkpt lat="47.56275" lon="-1.54589">
        <ele>46</ele>
        <time>2023-10-29T17:39:04Z</time>
      </trkpt>
      <trkpt lat="47.56291" lon="-1.54573">
        <ele>45</ele>
        <time>2023-10-29T17:39:30Z</time>
      </trkpt>
      <trkpt lat="47.56305" lon="-1.54556">
        <ele>45</ele>
        <time>2023-10-29T17:39:54Z</time>
      </trkpt>
      <trkpt lat="47.56294" lon="-1.54534">
        <ele>47</ele>
        <time>2023-10-29T17:40:19Z</time>
      </trkpt>
      <trkpt lat="47.56306" lon="-1.54512">
        <ele>47</ele>
        <time>2023-10-29T17:40:44Z</time>
      </trkpt>
      <trkpt lat="47.56318" lon="-1.54492">
        <ele>47</ele>
        <time>2023-10-29T17:41:08Z</time>
      </trkpt>
      <trkpt lat="47.56333" lon="-1.54476">
        <ele>46</ele>
        <time>2023-10-29T17:41:33Z</time>
      </trkpt>
      <trkpt lat="47.56348" lon="-1.54458">
        <ele>45</ele>
        <time>2023-10-29T17:41:59Z</time>
      </trkpt>
      <trkpt lat="47.56358" lon="-1.54435">
        <ele>44</ele>
        <time>2023-10-29T17:42:23Z</time>
      </trkpt>
      <trkpt lat="47.56369" lon="-1.54414">
        <ele>44</ele>
        <time>2023-10-29T17:42:47Z</time>
      </trkpt>
      <trkpt lat="47.5636" lon="-1.5439">
        <ele>45</ele>
        <time>2023-10-29T17:43:12Z</time>
      </trkpt>
      <trkpt lat="47.56369" lon="-1.54367">
        <ele>45</ele>
        <time>2023-10-29T17:43:36Z</time>
      </trkpt>
      <trkpt lat="47.56385" lon="-1.54353">
        <ele>45</ele>
        <time>2023-10-29T17:44:01Z</time>
      </trkpt>
      <trkpt lat="47.564" lon="-1.54336">
        <ele>44</ele>
        <time>2023-10-29T17:44:26Z</time>
      </trkpt>
      <trkpt lat="47.56415" lon="-1.54319">
        <ele>44</ele>
        <time>2023-10-29T17:44:51Z</time>
      </trkpt>
      <trkpt lat="47.56431" lon="-1.54306">
        <ele>44</ele>
        <time>2023-10-29T17:45:15Z</time>
      </trkpt>
      <trkpt lat="47.56444" lon="-1.54286">
        <ele>43</ele>
        <time>2023-10-29T17:45:40Z</time>
      </trkpt>
      <trkpt lat="47.56439" lon="-1.5426">
        <ele>43</ele>
        <time>2023-10-29T17:46:05Z</time>
      </trkpt>
      <trkpt lat="47.56428" lon="-1.54238">
        <ele>43</ele>
        <time>2023-10-29T17:46:29Z</time>
      </trkpt>
      <trkpt lat="47.56417" lon="-1.54216">
        <ele>43</ele>
        <time>2023-10-29T17:46:54Z</time>
      </trkpt>
      <trkpt lat="47.56429" lon="-1.54194">
        <ele>43</ele>
        <time>2023-10-29T17:47:20Z</time>
      </trkpt>
      <trkpt lat="47.56445" lon="-1.5418">
        <ele>42</ele>
        <time>2023-10-29T17:47:44Z</time>
      </trkpt>
      <trkpt lat="47.56462" lon="-1.5417">
        <ele>42</ele>
        <time>2023-10-29T17:48:09Z</time>
      </trkpt>
      <trkpt lat="47.56479" lon="-1.54158">
        <ele>42</ele>
        <time>2023-10-29T17:48:34Z</time>
      </trkpt>
      <trkpt lat="47.56494" lon="-1.54142">
        <ele>41</ele>
        <time>2023-10-29T17:48:59Z</time>
      </trkpt>
      <trkpt lat="47.56511" lon="-1.5413">
        <ele>41</ele>
        <time>2023-10-29T17:49:24Z</time>
      </trkpt>
      <trkpt lat="47.56522" lon="-1.54109">
        <ele>41</ele>
        <time>2023-10-29T17:49:48Z</time>
      </trkpt>
      <trkpt lat="47.56523" lon="-1.54082">
        <ele>41</ele>
        <time>2023-10-29T17:50:12Z</time>
      </trkpt>
      <trkpt lat="47.56522" lon="-1.54055">
        <ele>42</ele>
        <time>2023-10-29T17:50:36Z</time>
      </trkpt>
      <trkpt lat="47.56522" lon="-1.54027">
        <ele>43</ele>
        <time>2023-10-29T17:51:02Z</time>
      </trkpt>
      <trkpt lat="47.56521" lon="-1.54">
        <ele>43</ele>
        <time>2023-10-29T17:51:26Z</time>
      </trkpt>
      <trkpt lat="47.56517" lon="-1.53974">
        <ele>45</ele>
        <time>2023-10-29T17:51:50Z</time>
      </trkpt>
      <trkpt lat="47.56518" lon="-1.53946">
        <ele>46</ele>
        <time>2023-10-29T17:52:15Z</time>
      </trkpt>
      <trkpt lat="47.5652" lon="-1.5392">
        <ele>47</ele>
        <time>2023-10-29T17:52:39Z</time>
      </trkpt>
      <trkpt lat="47.56518" lon="-1.53893">
        <ele>47</ele>
        <time>2023-10-29T17:53:03Z</time>
      </trkpt>
      <trkpt lat="47.56521" lon="-1.53866">
        <ele>47</ele>
        <time>2023-10-29T17:53:28Z</time>
      </trkpt>
      <trkpt lat="47.56525" lon="-1.53839">
        <ele>48</ele>
        <time>2023-10-29T17:53:53Z</time>
      </trkpt>
      <trkpt lat="47.56524" lon="-1.53811">
        <ele>48</ele>
        <time>2023-10-29T17:54:18Z</time>
      </trkpt>
      <trkpt lat="47.56523" lon="-1.53783">
        <ele>47</ele>
        <time>2023-10-29T17:54:43Z</time>
      </trkpt>
      <trkpt lat="47.56525" lon="-1.53757">
        <ele>47</ele>
        <time>2023-10-29T17:55:07Z</time>
      </trkpt>
      <trkpt lat="47.56516" lon="-1.53733">
        <ele>47</ele>
        <time>2023-10-29T17:55:31Z</time>
      </trkpt>
      <trkpt lat="47.56498" lon="-1.53725">
        <ele>48</ele>
        <time>2023-10-29T17:55:57Z</time>
      </trkpt>
      <trkpt lat="47.56481" lon="-1.53719">
        <ele>48</ele>
        <time>2023-10-29T17:56:20Z</time>
      </trkpt>
      <trkpt lat="47.56463" lon="-1.53708">
        <ele>48</ele>
        <time>2023-10-29T17:56:46Z</time>
      </trkpt>
      <trkpt lat="47.56446" lon="-1.53701">
        <ele>48</ele>
        <time>2023-10-29T17:57:09Z</time>
      </trkpt>
      <trkpt lat="47.56429" lon="-1.53688">
        <ele>48</ele>
        <time>2023-10-29T17:57:35Z</time>
      </trkpt>
      <trkpt lat="47.56411" lon="-1.53681">
        <ele>48</ele>
        <time>2023-10-29T17:58:00Z</time>
      </trkpt>
      <trkpt lat="47.56377" lon="-1.53663">
        <ele>48</ele>
        <time>2023-10-29T17:58:48Z</time>
      </trkpt>
      <trkpt lat="47.56361" lon="-1.53649">
        <ele>48</ele>
        <time>2023-10-29T17:59:13Z</time>
      </trkpt>
      <trkpt lat="47.56327" lon="-1.53627">
        <ele>48</ele>
        <time>2023-10-29T18:00:02Z</time>
      </trkpt>
      <trkpt lat="47.56308" lon="-1.53626">
        <ele>49</ele>
        <time>2023-10-29T18:00:28Z</time>
      </trkpt>
      <trkpt lat="47.56291" lon="-1.53616">
        <ele>49</ele>
        <time>2023-10-29T18:00:52Z</time>
      </trkpt>
      <trkpt lat="47.56273" lon="-1.53608">
        <ele>49</ele>
        <time>2023-10-29T18:01:17Z</time>
      </trkpt>
      <trkpt lat="47.56257" lon="-1.53595">
        <ele>49</ele>
        <time>2023-10-29T18:01:41Z</time>
      </trkpt>
      <trkpt lat="47.5624" lon="-1.53585">
        <ele>48</ele>
        <time>2023-10-29T18:02:06Z</time>
      </trkpt>
      <trkpt lat="47.56222" lon="-1.53579">
        <ele>48</ele>
        <time>2023-10-29T18:02:30Z</time>
      </trkpt>
      <trkpt lat="47.56204" lon="-1.53571">
        <ele>48</ele>
        <time>2023-10-29T18:02:56Z</time>
      </trkpt>
      <trkpt lat="47.56186" lon="-1.5358">
        <ele>48</ele>
        <time>2023-10-29T18:03:21Z</time>
      </trkpt>
      <trkpt lat="47.56169" lon="-1.53591">
        <ele>48</ele>
        <time>2023-10-29T18:03:46Z</time>
      </trkpt>
      <trkpt lat="47.56153" lon="-1.53605">
        <ele>49</ele>
        <time>2023-10-29T18:04:10Z</time>
      </trkpt>
      <trkpt lat="47.56136" lon="-1.5361">
        <ele>50</ele>
        <time>2023-10-29T18:04:34Z</time>
      </trkpt>
      <trkpt lat="47.56118" lon="-1.53619">
        <ele>50</ele>
        <time>2023-10-29T18:04:59Z</time>
      </trkpt>
      <trkpt lat="47.56083" lon="-1.53634">
        <ele>51</ele>
        <time>2023-10-29T18:05:48Z</time>
      </trkpt>
      <trkpt lat="47.56066" lon="-1.53621">
        <ele>51</ele>
        <time>2023-10-29T18:06:13Z</time>
      </trkpt>
      <trkpt lat="47.56051" lon="-1.53637">
        <ele>52</ele>
        <time>2023-10-29T18:06:38Z</time>
      </trkpt>
      <trkpt lat="47.56034" lon="-1.53648">
        <ele>52</ele>
        <time>2023-10-29T18:07:02Z</time>
      </trkpt>
      <trkpt lat="47.56016" lon="-1.53656">
        <ele>52</ele>
        <time>2023-10-29T18:07:28Z</time>
      </trkpt>
      <trkpt lat="47.55998" lon="-1.53661">
        <ele>52</ele>
        <time>2023-10-29T18:07:52Z</time>
      </trkpt>
      <trkpt lat="47.55964" lon="-1.53682">
        <ele>54</ele>
        <time>2023-10-29T18:08:41Z</time>
      </trkpt>
      <trkpt lat="47.55951" lon="-1.53701">
        <ele>54</ele>
        <time>2023-10-29T18:09:06Z</time>
      </trkpt>
      <trkpt lat="47.5595" lon="-1.53729">
        <ele>55</ele>
        <time>2023-10-29T18:09:31Z</time>
      </trkpt>
      <trkpt lat="47.55959" lon="-1.53753">
        <ele>55</ele>
        <time>2023-10-29T18:09:55Z</time>
      </trkpt>
      <trkpt lat="47.5596" lon="-1.5378">
        <ele>55</ele>
        <time>2023-10-29T18:10:20Z</time>
      </trkpt>
      <trkpt lat="47.55954" lon="-1.53807">
        <ele>56</ele>
        <time>2023-10-29T18:10:45Z</time>
      </trkpt>
      <trkpt lat="47.55959" lon="-1.53833">
        <ele>56</ele>
        <time>2023-10-29T18:11:10Z</time>
      </trkpt>
      <trkpt lat="47.55959" lon="-1.53861">
        <ele>56</ele>
        <time>2023-10-29T18:11:35Z</time>
      </trkpt>
      <trkpt lat="47.55956" lon="-1.53887">
        <ele>57</ele>
        <time>2023-10-29T18:11:59Z</time>
      </trkpt>
      <trkpt lat="47.55951" lon="-1.53914">
        <ele>57</ele>
        <time>2023-10-29T18:12:24Z</time>
      </trkpt>
      <trkpt lat="47.55952" lon="-1.53942">
        <ele>57</ele>
        <time>2023-10-29T18:12:49Z</time>
      </trkpt>
      <trkpt lat="47.5595" lon="-1.53968">
        <ele>58</ele>
        <time>2023-10-29T18:13:13Z</time>
      </trkpt>
      <trkpt lat="47.55949" lon="-1.53996">
        <ele>58</ele>
        <time>2023-10-29T18:13:38Z</time>
      </trkpt>
      <trkpt lat="47.55947" lon="-1.54023">
        <ele>58</ele>
        <time>2023-10-29T18:14:02Z</time>
      </trkpt>
      <trkpt lat="47.55944" lon="-1.5405">
        <ele>57</ele>
        <time>2023-10-29T18:14:27Z</time>
      </trkpt>
      <trkpt lat="47.55948" lon="-1.54077">
        <ele>57</ele>
        <time>2023-10-29T18:14:52Z</time>
      </trkpt>
      <trkpt lat="47.55951" lon="-1.54104">
        <ele>57</ele>
        <time>2023-10-29T18:15:17Z</time>
      </trkpt>
      <trkpt lat="47.55949" lon="-1.5413">
        <ele>57</ele>
        <time>2023-10-29T18:15:40Z</time>
      </trkpt>
      <trkpt lat="47.55945" lon="-1.54158">
        <ele>57</ele>
        <time>2023-10-29T18:16:06Z</time>
      </trkpt>
      <trkpt lat="47.55959" lon="-1.54176">
        <ele>59</ele>
        <time>2023-10-29T18:16:31Z</time>
      </trkpt>
      <trkpt lat="47.55977" lon="-1.54168">
        <ele>59</ele>
        <time>2023-10-29T18:16:56Z</time>
      </trkpt>
      <trkpt lat="47.55989" lon="-1.54187">
        <ele>62</ele>
        <time>2023-10-29T18:17:19Z</time>
      </trkpt>
      <trkpt lat="47.55981" lon="-1.54211">
        <ele>64</ele>
        <time>2023-10-29T18:17:43Z</time>
      </trkpt>
      <trkpt lat="47.55965" lon="-1.54224">
        <ele>64</ele>
        <time>2023-10-29T18:18:08Z</time>
      </trkpt>
      <trkpt lat="47.55977" lon="-1.54244">
        <ele>67</ele>
        <time>2023-10-29T18:18:32Z</time>
      </trkpt>
      <trkpt lat="47.55995" lon="-1.54253">
        <ele>70</ele>
        <time>2023-10-29T18:18:57Z</time>
      </trkpt>
      <trkpt lat="47.56028" lon="-1.54277">
        <ele>74</ele>
        <time>2023-10-29T18:19:46Z</time>
      </trkpt>
      <trkpt lat="47.56044" lon="-1.5429">
        <ele>77</ele>
        <time>2023-10-29T18:20:11Z</time>
      </trkpt>
      <trkpt lat="47.56061" lon="-1.54301">
        <ele>80</ele>
        <time>2023-10-29T18:20:35Z</time>
      </trkpt>
      <trkpt lat="47.56078" lon="-1.54314">
        <ele>84</ele>
        <time>2023-10-29T18:21:01Z</time>
      </trkpt>
      <trkpt lat="47.56094" lon="-1.54327">
        <ele>86</ele>
        <time>2023-10-29T18:21:25Z</time>
      </trkpt>
      <trkpt lat="47.5611" lon="-1.54341">
        <ele>86</ele>
        <time>2023-10-29T18:21:50Z</time>
      </trkpt>
      <trkpt lat="47.56127" lon="-1.54352">
        <ele>85</ele>
        <time>2023-10-29T18:22:15Z</time>
      </trkpt>
      <trkpt lat="47.56141" lon="-1.54369">
        <ele>84</ele>
        <time>2023-10-29T18:22:39Z</time>
      </trkpt>
      <trkpt lat="47.56126" lon="-1.54352">
        <ele>85</ele>
        <time>2023-10-29T18:23:04Z</time>
      </trkpt>
      <trkpt lat="47.56109" lon="-1.54341">
        <ele>86</ele>
        <time>2023-10-29T18:23:29Z</time>
      </trkpt>
      <trkpt lat="47.56093" lon="-1.54329">
        <ele>86</ele>
        <time>2023-10-29T18:23:53Z</time>
      </trkpt>
      <trkpt lat="47.5606" lon="-1.54303">
        <ele>80</ele>
        <time>2023-10-29T18:24:43Z</time>
      </trkpt>
      <trkpt lat="47.56043" lon="-1.54293">
        <ele>77</ele>
        <time>2023-10-29T18:25:07Z</time>
      </trkpt>
      <trkpt lat="47.56028" lon="-1.54278">
        <ele>74</ele>
        <time>2023-10-29T18:25:31Z</time>
      </trkpt>
      <trkpt lat="47.55993" lon="-1.54258">
        <ele>70</ele>
        <time>2023-10-29T18:26:21Z</time>
      </trkpt>
      <trkpt lat="47.55977" lon="-1.54247">
        <ele>67</ele>
        <time>2023-10-29T18:26:45Z</time>
      </trkpt>
      <trkpt lat="47.55959" lon="-1.54239">
        <ele>64</ele>
        <time>2023-10-29T18:27:10Z</time>
      </trkpt>
      <trkpt lat="47.55968" lon="-1.54215">
        <ele>63</ele>
        <time>2023-10-29T18:27:35Z</time>
      </trkpt>
      <trkpt lat="47.55984" lon="-1.54201">
        <ele>63</ele>
        <time>2023-10-29T18:27:59Z</time>
      </trkpt>
      <trkpt lat="47.55985" lon="-1.54173">
        <ele>60</ele>
        <time>2023-10-29T18:28:25Z</time>
      </trkpt>
      <trkpt lat="47.55996" lon="-1.54151">
        <ele>59</ele>
        <time>2023-10-29T18:28:49Z</time>
      </trkpt>
      <trkpt lat="47.5601" lon="-1.54134">
        <ele>59</ele>
        <time>2023-10-29T18:29:13Z</time>
      </trkpt>
      <trkpt lat="47.56027" lon="-1.54123">
        <ele>59</ele>
        <time>2023-10-29T18:29:38Z</time>
      </trkpt>
      <trkpt lat="47.56045" lon="-1.54117">
        <ele>59</ele>
        <time>2023-10-29T18:30:03Z</time>
      </trkpt>
      <trkpt lat="47.56063" lon="-1.54113">
        <ele>60</ele>
        <time>2023-10-29T18:30:27Z</time>
      </trkpt>
      <trkpt lat="47.56082" lon="-1.54114">
        <ele>60</ele>
        <time>2023-10-29T18:30:53Z</time>
      </trkpt>
      <trkpt lat="47.561" lon="-1.54116">
        <ele>60</ele>
        <time>2023-10-29T18:31:17Z</time>
      </trkpt>
      <trkpt lat="47.56116" lon="-1.5413">
        <ele>59</ele>
        <time>2023-10-29T18:31:41Z</time>
      </trkpt>
      <trkpt lat="47.56132" lon="-1.54144">
        <ele>58</ele>
        <time>2023-10-29T18:32:06Z</time>
      </trkpt>
      <trkpt lat="47.56147" lon="-1.54159">
        <ele>57</ele>
        <time>2023-10-29T18:32:30Z</time>
      </trkpt>
      <trkpt lat="47.56164" lon="-1.54168">
        <ele>56</ele>
        <time>2023-10-29T18:32:54Z</time>
      </trkpt>
      <trkpt lat="47.5618" lon="-1.54182">
        <ele>57</ele>
        <time>2023-10-29T18:33:19Z</time>
      </trkpt>
      <trkpt lat="47.56198" lon="-1.54175">
        <ele>54</ele>
        <time>2023-10-29T18:33:44Z</time>
      </trkpt>
      <trkpt lat="47.56215" lon="-1.54183">
        <ele>54</ele>
        <time>2023-10-29T18:34:08Z</time>
      </trkpt>
      <trkpt lat="47.56233" lon="-1.54193">
        <ele>52</ele>
        <time>2023-10-29T18:34:34Z</time>
      </trkpt>
      <trkpt lat="47.56248" lon="-1.5421">
        <ele>51</ele>
        <time>2023-10-29T18:34:59Z</time>
      </trkpt>
      <trkpt lat="47.56265" lon="-1.54216">
        <ele>50</ele>
        <time>2023-10-29T18:35:22Z</time>
      </trkpt>
      <trkpt lat="47.56283" lon="-1.54209">
        <ele>49</ele>
        <time>2023-10-29T18:35:47Z</time>
      </trkpt>
      <trkpt lat="47.56301" lon="-1.54203">
        <ele>47</ele>
        <time>2023-10-29T18:36:11Z</time>
      </trkpt>
      <trkpt lat="47.56319" lon="-1.54196">
        <ele>46</ele>
        <time>2023-10-29T18:36:36Z</time>
      </trkpt>
      <trkpt lat="47.56333" lon="-1.54179">
        <ele>45</ele>
        <time>2023-10-29T18:37:00Z</time>
      </trkpt>
      <trkpt lat="47.56346" lon="-1.5416">
        <ele>45</ele>
        <time>2023-10-29T18:37:25Z</time>
      </trkpt>
      <trkpt lat="47.56363" lon="-1.54149">
        <ele>45</ele>
        <time>2023-10-29T18:37:50Z</time>
      </trkpt>
      <trkpt lat="47.56376" lon="-1.54131">
        <ele>45</ele>
        <time>2023-10-29T18:38:13Z</time>
      </trkpt>
      <trkpt lat="47.56378" lon="-1.54103">
        <ele>46</ele>
        <time>2023-10-29T18:38:39Z</time>
      </trkpt>
      <trkpt lat="47.56378" lon="-1.54075">
        <ele>47</ele>
        <time>2023-10-29T18:39:04Z</time>
      </trkpt>
      <trkpt lat="47.56385" lon="-1.54049">
        <ele>48</ele>
        <time>2023-10-29T18:39:29Z</time>
      </trkpt>
      <trkpt lat="47.56399" lon="-1.54032">
        <ele>48</ele>
        <time>2023-10-29T18:39:53Z</time>
      </trkpt>
      <trkpt lat="47.56403" lon="-1.54005">
        <ele>50</ele>
        <time>2023-10-29T18:40:18Z</time>
      </trkpt>
      <trkpt lat="47.56396" lon="-1.53951">
        <ele>51</ele>
        <time>2023-10-29T18:41:08Z</time>
      </trkpt>
      <trkpt lat="47.56395" lon="-1.53924">
        <ele>52</ele>
        <time>2023-10-29T18:41:32Z</time>
      </trkpt>
      <trkpt lat="47.56408" lon="-1.53904">
        <ele>52</ele>
        <time>2023-10-29T18:41:57Z</time>
      </trkpt>
      <trkpt lat="47.56426" lon="-1.53895">
        <ele>51</ele>
        <time>2023-10-29T18:42:22Z</time>
      </trkpt>
      <trkpt lat="47.56441" lon="-1.53881">
        <ele>51</ele>
        <time>2023-10-29T18:42:46Z</time>
      </trkpt>
      <trkpt lat="47.56454" lon="-1.53899">
        <ele>51</ele>
        <time>2023-10-29T18:43:10Z</time>
      </trkpt>
      <trkpt lat="47.56443" lon="-1.53921">
        <ele>51</ele>
        <time>2023-10-29T18:43:34Z</time>
      </trkpt>
      <trkpt lat="47.56431" lon="-1.53942">
        <ele>51</ele>
        <time>2023-10-29T18:43:59Z</time>
      </trkpt>
      <trkpt lat="47.56434" lon="-1.53969">
        <ele>50</ele>
        <time>2023-10-29T18:44:24Z</time>
      </trkpt>
      <trkpt lat="47.56452" lon="-1.53965">
        <ele>49</ele>
        <time>2023-10-29T18:44:48Z</time>
      </trkpt>
      <trkpt lat="47.56463" lon="-1.53943">
        <ele>49</ele>
        <time>2023-10-29T18:45:13Z</time>
      </trkpt>
      <trkpt lat="47.56481" lon="-1.53952">
        <ele>48</ele>
        <time>2023-10-29T18:45:38Z</time>
      </trkpt>
      <trkpt lat="47.56499" lon="-1.53955">
        <ele>47</ele>
        <time>2023-10-29T18:46:02Z</time>
      </trkpt>
      <trkpt lat="47.56497" lon="-1.53927">
        <ele>49</ele>
        <time>2023-10-29T18:46:28Z</time>
      </trkpt>
      <trkpt lat="47.56489" lon="-1.53902">
        <ele>50</ele>
        <time>2023-10-29T18:46:53Z</time>
      </trkpt>
      <trkpt lat="47.56478" lon="-1.53881">
        <ele>50</ele>
        <time>2023-10-29T18:47:17Z</time>
      </trkpt>
      <trkpt lat="47.56463" lon="-1.53862">
        <ele>50</ele>
        <time>2023-10-29T18:47:43Z</time>
      </trkpt>
      <trkpt lat="47.56447" lon="-1.53851">
        <ele>50</ele>
        <time>2023-10-29T18:48:06Z</time>
      </trkpt>
      <trkpt lat="47.56429" lon="-1.53839">
        <ele>50</ele>
        <time>2023-10-29T18:48:33Z</time>
      </trkpt>
      <trkpt lat="47.56412" lon="-1.53832">
        <ele>50</ele>
        <time>2023-10-29T18:48:56Z</time>
      </trkpt>
      <trkpt lat="47.56397" lon="-1.53848">
        <ele>50</ele>
        <time>2023-10-29T18:49:21Z</time>
      </trkpt>
      <trkpt lat="47.56381" lon="-1.5386">
        <ele>50</ele>
        <time>2023-10-29T18:49:45Z</time>
      </trkpt>
      <trkpt lat="47.56367" lon="-1.53842">
        <ele>50</ele>
        <time>2023-10-29T18:50:10Z</time>
      </trkpt>
      <trkpt lat="47.5635" lon="-1.53831">
        <ele>49</ele>
        <time>2023-10-29T18:50:34Z</time>
      </trkpt>
      <trkpt lat="47.56331" lon="-1.53829">
        <ele>49</ele>
        <time>2023-10-29T18:51:00Z</time>
      </trkpt>
      <trkpt lat="47.56313" lon="-1.53824">
        <ele>51</ele>
        <time>2023-10-29T18:51:24Z</time>
      </trkpt>
      <trkpt lat="47.56319" lon="-1.53798">
        <ele>50</ele>
        <time>2023-10-29T18:51:49Z</time>
      </trkpt>
      <trkpt lat="47.56326" lon="-1.53773">
        <ele>50</ele>
        <time>2023-10-29T18:52:13Z</time>
      </trkpt>
      <trkpt lat="47.56328" lon="-1.53746">
        <ele>49</ele>
        <time>2023-10-29T18:52:38Z</time>
      </trkpt>
      <trkpt lat="47.56327" lon="-1.53718">
        <ele>49</ele>
        <time>2023-10-29T18:53:03Z</time>
      </trkpt>
      <trkpt lat="47.56325" lon="-1.53746">
        <ele>50</ele>
        <time>2023-10-29T18:53:28Z</time>
      </trkpt>
      <trkpt lat="47.56327" lon="-1.53773">
        <ele>50</ele>
        <time>2023-10-29T18:53:53Z</time>
      </trkpt>
      <trkpt lat="47.56318" lon="-1.53798">
        <ele>50</ele>
        <time>2023-10-29T18:54:18Z</time>
      </trkpt>
      <trkpt lat="47.56302" lon="-1.53812">
        <ele>52</ele>
        <time>2023-10-29T18:54:43Z</time>
      </trkpt>
      <trkpt lat="47.56285" lon="-1.53801">
        <ele>53</ele>
        <time>2023-10-29T18:55:08Z</time>
      </trkpt>
      <trkpt lat="47.56269" lon="-1.53788">
        <ele>55</ele>
        <time>2023-10-29T18:55:32Z</time>
      </trkpt>
      <trkpt lat="47.56252" lon="-1.53796">
        <ele>56</ele>
        <time>2023-10-29T18:55:56Z</time>
      </trkpt>
      <trkpt lat="47.56235" lon="-1.53806">
        <ele>57</ele>
        <time>2023-10-29T18:56:20Z</time>
      </trkpt>
      <trkpt lat="47.56218" lon="-1.53819">
        <ele>58</ele>
        <time>2023-10-29T18:56:46Z</time>
      </trkpt>
      <trkpt lat="47.56199" lon="-1.53824">
        <ele>59</ele>
        <time>2023-10-29T18:57:12Z</time>
      </trkpt>
      <trkpt lat="47.5618" lon="-1.53824">
        <ele>60</ele>
        <time>2023-10-29T18:57:37Z</time>
      </trkpt>
      <trkpt lat="47.56162" lon="-1.53821">
        <ele>60</ele>
        <time>2023-10-29T18:58:01Z</time>
      </trkpt>
      <trkpt lat="47.56143" lon="-1.53816">
        <ele>59</ele>
        <time>2023-10-29T18:58:27Z</time>
      </trkpt>
      <trkpt lat="47.56125" lon="-1.53824">
        <ele>59</ele>
        <time>2023-10-29T18:58:52Z</time>
      </trkpt>
      <trkpt lat="47.5611" lon="-1.5384">
        <ele>59</ele>
        <time>2023-10-29T18:59:17Z</time>
      </trkpt>
      <trkpt lat="47.56092" lon="-1.53841">
        <ele>58</ele>
        <time>2023-10-29T18:59:41Z</time>
      </trkpt>
      <trkpt lat="47.56075" lon="-1.53855">
        <ele>58</ele>
        <time>2023-10-29T19:00:07Z</time>
      </trkpt>
      <trkpt lat="47.56058" lon="-1.5386">
        <ele>57</ele>
        <time>2023-10-29T19:00:30Z</time>
      </trkpt>
      <trkpt lat="47.56039" lon="-1.53858">
        <ele>56</ele>
        <time>2023-10-29T19:00:55Z</time>
      </trkpt>
      <trkpt lat="47.56026" lon="-1.53877">
        <ele>56</ele>
        <time>2023-10-29T19:01:20Z</time>
      </trkpt>
      <trkpt lat="47.56005" lon="-1.53923">
        <ele>56</ele>
        <time>2023-10-29T19:02:10Z</time>
      </trkpt>
      <trkpt lat="47.56003" lon="-1.5395">
        <ele>57</ele>
        <time>2023-10-29T19:02:34Z</time>
      </trkpt>
      <trkpt lat="47.55998" lon="-1.53977">
        <ele>57</ele>
        <time>2023-10-29T19:02:59Z</time>
      </trkpt>
      <trkpt lat="47.55992" lon="-1.54004">
        <ele>58</ele>
        <time>2023-10-29T19:03:25Z</time>
      </trkpt>
      <trkpt lat="47.55993" lon="-1.54031">
        <ele>58</ele>
        <time>2023-10-29T19:03:49Z</time>
      </trkpt>
      <trkpt lat="47.56" lon="-1.54056">
        <ele>57</ele>
        <time>2023-10-29T19:04:14Z</time>
      </trkpt>
      <trkpt lat="47.56007" lon="-1.54081">
        <ele>57</ele>
        <time>2023-10-29T19:04:38Z</time>
      </trkpt>
      <trkpt lat="47.56004" lon="-1.54108">
        <ele>58</ele>
        <time>2023-10-29T19:05:03Z</time>
      </trkpt>
      <trkpt lat="47.56002" lon="-1.54135">
        <ele>59</ele>
        <time>2023-10-29T19:05:27Z</time>
      </trkpt>
      <trkpt lat="47.55991" lon="-1.54158">
        <ele>59</ele>
        <time>2023-10-29T19:05:53Z</time>
      </trkpt>
      <trkpt lat="47.55976" lon="-1.54175">
        <ele>60</ele>
        <time>2023-10-29T19:06:18Z</time>
      </trkpt>
      <trkpt lat="47.5596" lon="-1.5419">
        <ele>60</ele>
        <time>2023-10-29T19:06:43Z</time>
      </trkpt>
      <trkpt lat="47.55944" lon="-1.54203">
        <ele>60</ele>
        <time>2023-10-29T19:07:07Z</time>
      </trkpt>
      <trkpt lat="47.55927" lon="-1.54214">
        <ele>59</ele>
        <time>2023-10-29T19:07:32Z</time>
      </trkpt>
      <trkpt lat="47.5591" lon="-1.54201">
        <ele>57</ele>
        <time>2023-10-29T19:07:58Z</time>
      </trkpt>
      <trkpt lat="47.55898" lon="-1.54181">
        <ele>57</ele>
        <time>2023-10-29T19:08:22Z</time>
      </trkpt>
      <trkpt lat="47.55879" lon="-1.54179">
        <ele>57</ele>
        <time>2023-10-29T19:08:47Z</time>
      </trkpt>
      <trkpt lat="47.55861" lon="-1.54179">
        <ele>57</ele>
        <time>2023-10-29T19:09:11Z</time>
      </trkpt>
      <trkpt lat="47.55843" lon="-1.54184">
        <ele>57</ele>
        <time>2023-10-29T19:09:36Z</time>
      </trkpt>
      <trkpt lat="47.55826" lon="-1.54196">
        <ele>58</ele>
        <time>2023-10-29T19:10:01Z</time>
      </trkpt>
      <trkpt lat="47.55808" lon="-1.54196">
        <ele>59</ele>
        <time>2023-10-29T19:10:25Z</time>
      </trkpt>
      <trkpt lat="47.55789" lon="-1.54197">
        <ele>59</ele>
        <time>2023-10-29T19:10:50Z</time>
      </trkpt>
      <trkpt lat="47.55774" lon="-1.54212">
        <ele>60</ele>
        <time>2023-10-29T19:11:14Z</time>
      </trkpt>
      <trkpt lat="47.5576" lon="-1.54228">
        <ele>60</ele>
        <time>2023-10-29T19:11:38Z</time>
      </trkpt>
      <trkpt lat="47.55756" lon="-1.54255">
        <ele>61</ele>
        <time>2023-10-29T19:12:03Z</time>
      </trkpt>
      <trkpt lat="47.55755" lon="-1.54282">
        <ele>61</ele>
        <time>2023-10-29T19:12:27Z</time>
      </trkpt>
      <trkpt lat="47.55758" lon="-1.5431">
        <ele>61</ele>
        <time>2023-10-29T19:12:53Z</time>
      </trkpt>
      <trkpt lat="47.5576" lon="-1.54282">
        <ele>61</ele>
        <time>2023-10-29T19:13:18Z</time>
      </trkpt>
      <trkpt lat="47.55757" lon="-1.54256">
        <ele>61</ele>
        <time>2023-10-29T19:13:42Z</time>
      </trkpt>
      <trkpt lat="47.55763" lon="-1.54229">
        <ele>60</ele>
        <time>2023-10-29T19:14:07Z</time>
      </trkpt>
      <trkpt lat="47.55774" lon="-1.54208">
        <ele>60</ele>
        <time>2023-10-29T19:14:31Z</time>
      </trkpt>
      <trkpt lat="47.5579" lon="-1.54194">
        <ele>59</ele>
        <time>2023-10-29T19:14:56Z</time>
      </trkpt>
      <trkpt lat="47.55795" lon="-1.5422">
        <ele>59</ele>
        <time>2023-10-29T19:15:20Z</time>
      </trkpt>
      <trkpt lat="47.55792" lon="-1.54247">
        <ele>60</ele>
        <time>2023-10-29T19:15:45Z</time>
      </trkpt>
      <trkpt lat="47.55795" lon="-1.54302">
        <ele>62</ele>
        <time>2023-10-29T19:16:35Z</time>
      </trkpt>
      <trkpt lat="47.55801" lon="-1.54328">
        <ele>63</ele>
        <time>2023-10-29T19:17:00Z</time>
      </trkpt>
      <trkpt lat="47.55819" lon="-1.54337">
        <ele>63</ele>
        <time>2023-10-29T19:17:25Z</time>
      </trkpt>
      <trkpt lat="47.55819" lon="-1.54364">
        <ele>63</ele>
        <time>2023-10-29T19:17:49Z</time>
      </trkpt>
      <trkpt lat="47.55823" lon="-1.54391">
        <ele>64</ele>
        <time>2023-10-29T19:18:14Z</time>
      </trkpt>
      <trkpt lat="47.55819" lon="-1.54417">
        <ele>63</ele>
        <time>2023-10-29T19:18:38Z</time>
      </trkpt>
      <trkpt lat="47.55819" lon="-1.54445">
        <ele>63</ele>
        <time>2023-10-29T19:19:03Z</time>
      </trkpt>
      <trkpt lat="47.55821" lon="-1.54473">
        <ele>62</ele>
        <time>2023-10-29T19:19:29Z</time>
      </trkpt>
      <trkpt lat="47.55822" lon="-1.54501">
        <ele>62</ele>
        <time>2023-10-29T19:19:54Z</time>
      </trkpt>
      <trkpt lat="47.55818" lon="-1.54528">
        <ele>62</ele>
        <time>2023-10-29T19:20:19Z</time>
      </trkpt>
      <trkpt lat="47.55819" lon="-1.54555">
        <ele>62</ele>
        <time>2023-10-29T19:20:43Z</time>
      </trkpt>
      <trkpt lat="47.55821" lon="-1.54582">
        <ele>63</ele>
        <time>2023-10-29T19:21:08Z</time>
      </trkpt>
      <trkpt lat="47.5583" lon="-1.54606">
        <ele>63</ele>
        <time>2023-10-29T19:21:32Z</time>
      </trkpt>
      <trkpt lat="47.55833" lon="-1.54633">
        <ele>62</ele>
        <time>2023-10-29T19:21:57Z</time>
      </trkpt>
      <trkpt lat="47.55826" lon="-1.54659">
        <ele>62</ele>
        <time>2023-10-29T19:22:22Z</time>
      </trkpt>
      <trkpt lat="47.5583" lon="-1.54686">
        <ele>62</ele>
        <time>2023-10-29T19:22:47Z</time>
      </trkpt>
      <trkpt lat="47.55841" lon="-1.54708">
        <ele>61</ele>
        <time>2023-10-29T19:23:12Z</time>
      </trkpt>
      <trkpt lat="47.55856" lon="-1.54724">
        <ele>60</ele>
        <time>2023-10-29T19:23:36Z</time>
      </trkpt>
      <trkpt lat="47.55847" lon="-1.54747">
        <ele>61</ele>
        <time>2023-10-29T19:24:00Z</time>
      </trkpt>
      <trkpt lat="47.55834" lon="-1.54767">
        <ele>62</ele>
        <time>2023-10-29T19:24:25Z</time>
      </trkpt>
      <trkpt lat="47.55815" lon="-1.5478">
        <ele>62</ele>
        <time>2023-10-29T19:24:53Z</time>
      </trkpt>
      <trkpt lat="47.55808" lon="-1.54806">
        <ele>62</ele>
        <time>2023-10-29T19:25:19Z</time>
      </trkpt>
      <trkpt lat="47.55799" lon="-1.54828">
        <ele>62</ele>
        <time>2023-10-29T19:25:42Z</time>
      </trkpt>
      <trkpt lat="47.55805" lon="-1.54854">
        <ele>61</ele>
        <time>2023-10-29T19:26:06Z</time>
      </trkpt>
      <trkpt lat="47.55797" lon="-1.54878">
        <ele>61</ele>
        <time>2023-10-29T19:26:31Z</time>
      </trkpt>
      <trkpt lat="47.55786" lon="-1.5493">
        <ele>59</ele>
        <time>2023-10-29T19:27:20Z</time>
      </trkpt>
      <trkpt lat="47.55786" lon="-1.54957">
        <ele>58</ele>
        <time>2023-10-29T19:27:44Z</time>
      </trkpt>
      <trkpt lat="47.55783" lon="-1.54985">
        <ele>57</ele>
        <time>2023-10-29T19:28:09Z</time>
      </trkpt>
      <trkpt lat="47.55765" lon="-1.54987">
        <ele>57</ele>
        <time>2023-10-29T19:28:34Z</time>
      </trkpt>
      <trkpt lat="47.55754" lon="-1.54965">
        <ele>59</ele>
        <time>2023-10-29T19:28:58Z</time>
      </trkpt>
      <trkpt lat="47.55719" lon="-1.54946">
        <ele>60</ele>
        <time>2023-10-29T19:29:48Z</time>
      </trkpt>
      <trkpt lat="47.55705" lon="-1.54929">
        <ele>61</ele>
        <time>2023-10-29T19:30:12Z</time>
      </trkpt>
      <trkpt lat="47.55687" lon="-1.54917">
        <ele>62</ele>
        <time>2023-10-29T19:30:38Z</time>
      </trkpt>
      <trkpt lat="47.55673" lon="-1.54899">
        <ele>62</ele>
        <time>2023-10-29T19:31:03Z</time>
      </trkpt>
      <trkpt lat="47.55661" lon="-1.54878">
        <ele>62</ele>
        <time>2023-10-29T19:31:28Z</time>
      </trkpt>
      <trkpt lat="47.55649" lon="-1.54857">
        <ele>62</ele>
        <time>2023-10-29T19:31:53Z</time>
      </trkpt>
      <trkpt lat="47.5563" lon="-1.54851">
        <ele>62</ele>
        <time>2023-10-29T19:32:19Z</time>
      </trkpt>
      <trkpt lat="47.55613" lon="-1.54843">
        <ele>63</ele>
        <time>2023-10-29T19:32:42Z</time>
      </trkpt>
      <trkpt lat="47.55601" lon="-1.5482">
        <ele>63</ele>
        <time>2023-10-29T19:33:09Z</time>
      </trkpt>
      <trkpt lat="47.55589" lon="-1.548">
        <ele>64</ele>
        <time>2023-10-29T19:33:33Z</time>
      </trkpt>
      <trkpt lat="47.55581" lon="-1.54776">
        <ele>65</ele>
        <time>2023-10-29T19:33:57Z</time>
      </trkpt>
      <trkpt lat="47.55576" lon="-1.5475">
        <ele>65</ele>
        <time>2023-10-29T19:34:21Z</time>
      </trkpt>
      <trkpt lat="47.55583" lon="-1.54726">
        <ele>65</ele>
        <time>2023-10-29T19:34:45Z</time>
      </trkpt>
      <trkpt lat="47.55571" lon="-1.54705">
        <ele>65</ele>
        <time>2023-10-29T19:35:10Z</time>
      </trkpt>
      <trkpt lat="47.55573" lon="-1.54678">
        <ele>66</ele>
        <time>2023-10-29T19:35:34Z</time>
      </trkpt>
      <trkpt lat="47.55584" lon="-1.54656">
        <ele>66</ele>
        <time>2023-10-29T19:35:59Z</time>
      </trkpt>
      <trkpt lat="47.5558" lon="-1.54629">
        <ele>66</ele>
        <time>2023-10-29T19:36:24Z</time>
      </trkpt>
      <trkpt lat="47.55569" lon="-1.54607">
        <ele>67</ele>
        <time>2023-10-29T19:36:48Z</time>
      </trkpt>
      <trkpt lat="47.55565" lon="-1.5458">
        <ele>67</ele>
        <time>2023-10-29T19:37:13Z</time>
      </trkpt>
      <trkpt lat="47.55564" lon="-1.54552">
        <ele>67</ele>
        <time>2023-10-29T19:37:38Z</time>
      </trkpt>
      <trkpt lat="47.55561" lon="-1.54526">
        <ele>66</ele>
        <time>2023-10-29T19:38:02Z</time>
      </trkpt>
      <trkpt lat="47.55567" lon="-1.54501">
        <ele>66</ele>
        <time>2023-10-29T19:38:26Z</time>
      </trkpt>
      <trkpt lat="47.5557" lon="-1.54473">
        <ele>65</ele>
        <time>2023-10-29T19:38:52Z</time>
      </trkpt>
      <trkpt lat="47.55569" lon="-1.54446">
        <ele>65</ele>
        <time>2023-10-29T19:39:16Z</time>
      </trkpt>
      <trkpt lat="47.5557" lon="-1.54419">
        <ele>64</ele>
        <time>2023-10-29T19:39:40Z</time>
      </trkpt>
      <trkpt lat="47.55557" lon="-1.54399">
        <ele>64</ele>
        <time>2023-10-29T19:40:05Z</time>
      </trkpt>
      <trkpt lat="47.55555" lon="-1.54371">
        <ele>63</ele>
        <time>2023-10-29T19:40:31Z</time>
      </trkpt>
      <trkpt lat="47.55556" lon="-1.54344">
        <ele>63</ele>
        <time>2023-10-29T19:40:55Z</time>
      </trkpt>
      <trkpt lat="47.55563" lon="-1.54318">
        <ele>64</ele>
        <time>2023-10-29T19:41:20Z</time>
      </trkpt>
      <trkpt lat="47.55558" lon="-1.54291">
        <ele>65</ele>
        <time>2023-10-29T19:41:45Z</time>
      </trkpt>
      <trkpt lat="47.55549" lon="-1.54268">
        <ele>66</ele>
        <time>2023-10-29T19:42:09Z</time>
      </trkpt>
      <trkpt lat="47.55541" lon="-1.54244">
        <ele>67</ele>
        <time>2023-10-29T19:42:33Z</time>
      </trkpt>
      <trkpt lat="47.55535" lon="-1.54218">
        <ele>67</ele>
        <time>2023-10-29T19:42:58Z</time>
      </trkpt>
      <trkpt lat="47.55527" lon="-1.54194">
        <ele>67</ele>
        <time>2023-10-29T19:43:22Z</time>
      </trkpt>
      <trkpt lat="47.55521" lon="-1.54167">
        <ele>67</ele>
        <time>2023-10-29T19:43:48Z</time>
      </trkpt>
      <trkpt lat="47.55511" lon="-1.54144">
        <ele>66</ele>
        <time>2023-10-29T19:44:13Z</time>
      </trkpt>
      <trkpt lat="47.55504" lon="-1.54118">
        <ele>66</ele>
        <time>2023-10-29T19:44:38Z</time>
      </trkpt>
      <trkpt lat="47.55496" lon="-1.54095">
        <ele>66</ele>
        <time>2023-10-29T19:45:01Z</time>
      </trkpt>
      <trkpt lat="47.55471" lon="-1.54019">
        <ele>64</ele>
        <time>2023-10-29T19:46:17Z</time>
      </trkpt>
      <trkpt lat="47.55464" lon="-1.53994">
        <ele>64</ele>
        <time>2023-10-29T19:46:42Z</time>
      </trkpt>
      <trkpt lat="47.55458" lon="-1.53969">
        <ele>64</ele>
        <time>2023-10-29T19:47:05Z</time>
      </trkpt>
      <trkpt lat="47.55449" lon="-1.53945">
        <ele>64</ele>
        <time>2023-10-29T19:47:30Z</time>
      </trkpt>
      <trkpt lat="47.55433" lon="-1.53896">
        <ele>65</ele>
        <time>2023-10-29T19:48:19Z</time>
      </trkpt>
      <trkpt lat="47.55426" lon="-1.53871">
        <ele>65</ele>
        <time>2023-10-29T19:48:44Z</time>
      </trkpt>
      <trkpt lat="47.55417" lon="-1.53846">
        <ele>66</ele>
        <time>2023-10-29T19:49:09Z</time>
      </trkpt>
      <trkpt lat="47.55409" lon="-1.53821">
        <ele>66</ele>
        <time>2023-10-29T19:49:34Z</time>
      </trkpt>
      <trkpt lat="47.55402" lon="-1.53797">
        <ele>66</ele>
        <time>2023-10-29T19:49:58Z</time>
      </trkpt>
      <trkpt lat="47.55395" lon="-1.53771">
        <ele>65</ele>
        <time>2023-10-29T19:50:23Z</time>
      </trkpt>
      <trkpt lat="47.55386" lon="-1.53747">
        <ele>65</ele>
        <time>2023-10-29T19:50:47Z</time>
      </trkpt>
      <trkpt lat="47.55378" lon="-1.53722">
        <ele>66</ele>
        <time>2023-10-29T19:51:12Z</time>
      </trkpt>
      <trkpt lat="47.55362" lon="-1.53672">
        <ele>67</ele>
        <time>2023-10-29T19:52:02Z</time>
      </trkpt>
      <trkpt lat="47.55353" lon="-1.53649">
        <ele>68</ele>
        <time>2023-10-29T19:52:26Z</time>
      </trkpt>
      <trkpt lat="47.55349" lon="-1.53623">
        <ele>68</ele>
        <time>2023-10-29T19:52:50Z</time>
      </trkpt>
      <trkpt lat="47.55339" lon="-1.536">
        <ele>69</ele>
        <time>2023-10-29T19:53:15Z</time>
      </trkpt>
      <trkpt lat="47.55331" lon="-1.53575">
        <ele>69</ele>
        <time>2023-10-29T19:53:40Z</time>
      </trkpt>
      <trkpt lat="47.55322" lon="-1.53549">
        <ele>69</ele>
        <time>2023-10-29T19:54:06Z</time>
      </trkpt>
      <trkpt lat="47.55314" lon="-1.53525">
        <ele>69</ele>
        <time>2023-10-29T19:54:30Z</time>
      </trkpt>
      <trkpt lat="47.55299" lon="-1.53473">
        <ele>70</ele>
        <time>2023-10-29T19:55:21Z</time>
      </trkpt>
      <trkpt lat="47.55292" lon="-1.53448">
        <ele>70</ele>
        <time>2023-10-29T19:55:46Z</time>
      </trkpt>
      <trkpt lat="47.55284" lon="-1.53423">
        <ele>71</ele>
        <time>2023-10-29T19:56:10Z</time>
      </trkpt>
      <trkpt lat="47.55274" lon="-1.53398">
        <ele>72</ele>
        <time>2023-10-29T19:56:37Z</time>
      </trkpt>
      <trkpt lat="47.55268" lon="-1.53373">
        <ele>73</ele>
        <time>2023-10-29T19:57:00Z</time>
      </trkpt>
      <trkpt lat="47.5526" lon="-1.53348">
        <ele>73</ele>
        <time>2023-10-29T19:57:25Z</time>
      </trkpt>
      <trkpt lat="47.55252" lon="-1.53323">
        <ele>74</ele>
        <time>2023-10-29T19:57:50Z</time>
      </trkpt>
      <trkpt lat="47.55252" lon="-1.53296">
        <ele>74</ele>
        <time>2023-10-29T19:58:15Z</time>
      </trkpt>
      <trkpt lat="47.55251" lon="-1.53269">
        <ele>75</ele>
        <time>2023-10-29T19:58:39Z</time>
      </trkpt>
      <trkpt lat="47.55256" lon="-1.53242">
        <ele>75</ele>
        <time>2023-10-29T19:59:04Z</time>
      </trkpt>
      <trkpt lat="47.55273" lon="-1.5323">
        <ele>74</ele>
        <time>2023-10-29T19:59:29Z</time>
      </trkpt>
      <trkpt lat="47.55291" lon="-1.53224">
        <ele>73</ele>
        <time>2023-10-29T19:59:54Z</time>
      </trkpt>
      <trkpt lat="47.55309" lon="-1.53214">
        <ele>72</ele>
        <time>2023-10-29T20:00:20Z</time>
      </trkpt>
      <trkpt lat="47.55326" lon="-1.53206">
        <ele>72</ele>
        <time>2023-10-29T20:00:43Z</time>
      </trkpt>
      <trkpt lat="47.55344" lon="-1.53198">
        <ele>71</ele>
        <time>2023-10-29T20:01:09Z</time>
      </trkpt>
      <trkpt lat="47.55363" lon="-1.53203">
        <ele>70</ele>
        <time>2023-10-29T20:01:34Z</time>
      </trkpt>
      <trkpt lat="47.5538" lon="-1.53213">
        <ele>69</ele>
        <time>2023-10-29T20:01:59Z</time>
      </trkpt>
    </trkseg>
  </trk>
  <trk>
    <name><![CDATA[Abbaretz_Mine_6.5km-5602014]]></name>
    <extensions>
      <line xmlns="http://www.topografix.com/GPX/gpx_style/0/2">
        <color>FF0000</color>
        <width>4</width>
      </line>
    </extensions>
    <trkseg>
      <trkpt lat="47.55388" lon="-1.53182">
        <ele>69</ele>
        <time>2023-10-29T17:00:23Z</time>
      </trkpt>
      <trkpt lat="47.55414" lon="-1.53306">
        <ele>66</ele>
        <time>2023-10-29T17:02:20Z</time>
      </trkpt>
      <trkpt lat="47.55466" lon="-1.53341">
        <ele>65</ele>
        <time>2023-10-29T17:03:36Z</time>
      </trkpt>
      <trkpt lat="47.55507" lon="-1.53323">
        <ele>64</ele>
        <time>2023-10-29T17:04:33Z</time>
      </trkpt>
      <trkpt lat="47.55567" lon="-1.53478">
        <ele>63</ele>
        <time>2023-10-29T17:07:14Z</time>
      </trkpt>
      <trkpt lat="47.55596" lon="-1.53564">
        <ele>61</ele>
        <time>2023-10-29T17:08:41Z</time>
      </trkpt>
      <trkpt lat="47.55709" lon="-1.53722">
        <ele>63</ele>
        <time>2023-10-29T17:12:08Z</time>
      </trkpt>
      <trkpt lat="47.55776" lon="-1.5377">
        <ele>61</ele>
        <time>2023-10-29T17:13:47Z</time>
      </trkpt>
      <trkpt lat="47.55764" lon="-1.53873">
        <ele>61</ele>
        <time>2023-10-29T17:15:22Z</time>
      </trkpt>
      <trkpt lat="47.5575" lon="-1.53946">
        <ele>62</ele>
        <time>2023-10-29T17:16:30Z</time>
      </trkpt>
      <trkpt lat="47.55782" lon="-1.54177">
        <ele>59</ele>
        <time>2023-10-29T17:20:02Z</time>
      </trkpt>
      <trkpt lat="47.55903" lon="-1.54182">
        <ele>57</ele>
        <time>2023-10-29T17:22:44Z</time>
      </trkpt>
      <trkpt lat="47.55985" lon="-1.54195">
        <ele>63</ele>
        <time>2023-10-29T17:24:34Z</time>
      </trkpt>
      <trkpt lat="47.55993" lon="-1.54143">
        <ele>59</ele>
        <time>2023-10-29T17:25:22Z</time>
      </trkpt>
      <trkpt lat="47.55944" lon="-1.54104">
        <ele>57</ele>
        <time>2023-10-29T17:26:36Z</time>
      </trkpt>
      <trkpt lat="47.5595" lon="-1.53697">
        <ele>54</ele>
        <time>2023-10-29T17:32:43Z</time>
      </trkpt>
      <trkpt lat="47.56196" lon="-1.53581">
        <ele>48</ele>
        <time>2023-10-29T17:38:27Z</time>
      </trkpt>
      <trkpt lat="47.56526" lon="-1.53735">
        <ele>46</ele>
        <time>2023-10-29T17:46:09Z</time>
      </trkpt>
      <trkpt lat="47.56523" lon="-1.54122">
        <ele>41</ele>
        <time>2023-10-29T17:51:57Z</time>
      </trkpt>
      <trkpt lat="47.56419" lon="-1.54207">
        <ele>43</ele>
        <time>2023-10-29T17:54:36Z</time>
      </trkpt>
      <trkpt lat="47.56448" lon="-1.5428">
        <ele>43</ele>
        <time>2023-10-29T17:55:52Z</time>
      </trkpt>
      <trkpt lat="47.56349" lon="-1.54405">
        <ele>45</ele>
        <time>2023-10-29T17:58:46Z</time>
      </trkpt>
      <trkpt lat="47.56271" lon="-1.54542">
        <ele>48</ele>
        <time>2023-10-29T18:01:27Z</time>
      </trkpt>
      <trkpt lat="47.56121" lon="-1.54602">
        <ele>49</ele>
        <time>2023-10-29T18:04:54Z</time>
      </trkpt>
      <trkpt lat="47.5606" lon="-1.54568">
        <ele>51</ele>
        <time>2023-10-29T18:06:21Z</time>
      </trkpt>
      <trkpt lat="47.55915" lon="-1.54628">
        <ele>57</ele>
        <time>2023-10-29T18:09:42Z</time>
      </trkpt>
      <trkpt lat="47.55918" lon="-1.54383">
        <ele>58</ele>
        <time>2023-10-29T18:13:23Z</time>
      </trkpt>
      <trkpt lat="47.55944" lon="-1.5431">
        <ele>62</ele>
        <time>2023-10-29T18:14:37Z</time>
      </trkpt>
      <trkpt lat="47.55883" lon="-1.54164">
        <ele>56</ele>
        <time>2023-10-29T18:17:12Z</time>
      </trkpt>
      <trkpt lat="47.55785" lon="-1.54216">
        <ele>60</ele>
        <time>2023-10-29T18:19:31Z</time>
      </trkpt>
      <trkpt lat="47.55817" lon="-1.54349">
        <ele>63</ele>
        <time>2023-10-29T18:21:38Z</time>
      </trkpt>
      <trkpt lat="47.55819" lon="-1.54572">
        <ele>62</ele>
        <time>2023-10-29T18:24:59Z</time>
      </trkpt>
      <trkpt lat="47.55828" lon="-1.54679">
        <ele>62</ele>
        <time>2023-10-29T18:26:36Z</time>
      </trkpt>
      <trkpt lat="47.5586" lon="-1.5474">
        <ele>59</ele>
        <time>2023-10-29T18:27:45Z</time>
      </trkpt>
      <trkpt lat="47.55802" lon="-1.54804">
        <ele>62</ele>
        <time>2023-10-29T18:29:22Z</time>
      </trkpt>
      <trkpt lat="47.55779" lon="-1.5501">
        <ele>56</ele>
        <time>2023-10-29T18:32:30Z</time>
      </trkpt>
      <trkpt lat="47.55582" lon="-1.54791">
        <ele>64</ele>
        <time>2023-10-29T18:37:59Z</time>
      </trkpt>
      <trkpt lat="47.55573" lon="-1.54624">
        <ele>66</ele>
        <time>2023-10-29T18:40:30Z</time>
      </trkpt>
      <trkpt lat="47.55565" lon="-1.54315">
        <ele>65</ele>
        <time>2023-10-29T18:45:08Z</time>
      </trkpt>
      <trkpt lat="47.55466" lon="-1.53997">
        <ele>64</ele>
        <time>2023-10-29T18:50:23Z</time>
      </trkpt>
      <trkpt lat="47.55295" lon="-1.53967">
        <ele>70</ele>
        <time>2023-10-29T18:54:13Z</time>
      </trkpt>
      <trkpt lat="47.55263" lon="-1.53898">
        <ele>71</ele>
        <time>2023-10-29T18:55:29Z</time>
      </trkpt>
      <trkpt lat="47.55174" lon="-1.5386">
        <ele>74</ele>
        <time>2023-10-29T18:57:32Z</time>
      </trkpt>
      <trkpt lat="47.55217" lon="-1.53628">
        <ele>73</ele>
        <time>2023-10-29T19:01:09Z</time>
      </trkpt>
      <trkpt lat="47.55232" lon="-1.53439">
        <ele>72</ele>
        <time>2023-10-29T19:04:00Z</time>
      </trkpt>
      <trkpt lat="47.55269" lon="-1.53388">
        <ele>72</ele>
        <time>2023-10-29T19:05:08Z</time>
      </trkpt>
      <trkpt lat="47.55313" lon="-1.53293">
        <ele>71</ele>
        <time>2023-10-29T19:06:52Z</time>
      </trkpt>
      <trkpt lat="47.55356" lon="-1.53298">
        <ele>69</ele>
        <time>2023-10-29T19:07:49Z</time>
      </trkpt>
      <trkpt lat="47.55336" lon="-1.53186">
        <ele>72</ele>
        <time>2023-10-29T19:09:33Z</time>
      </trkpt>
    </trkseg>
  </trk>
</gpx>